Time;durP1;ratioP1;P1;durP2;ratioP2;P2;SDS_P1;SDS_P2;PMS_P1;PMS_P2;Temp;Humidity;BMP_temperature;BMP_pressure;BME280_temperature;BME280_humidity;BME280_pressure;Samples;Min_cycle;Max_cycle;Signal;HPM_P1;HPM_P2
2021/03/09 00:02:12;;;;;;;4.75;2.60;;;;;;;-0.08;54.79;101932.25;4991302;28;20033;-81
2021/03/09 00:04:38;;;;;;;4.38;2.85;;;;;;;-0.30;55.21;101930.91;4991569;28;20080;-81
2021/03/09 00:07:03;;;;;;;9.05;2.78;;;;;;;-0.40;55.32;101921.25;4982276;28;20033;-84
2021/03/09 00:09:29;;;;;;;4.40;2.38;;;;;;;-0.31;55.67;101921.44;4982463;28;20038;-83
2021/03/09 00:11:54;;;;;;;5.30;3.17;;;;;;;-0.30;55.64;101920.63;4984245;28;20141;-82
2021/03/09 00:14:20;;;;;;;5.13;2.70;;;;;;;-0.32;55.57;101924.00;4995158;28;20017;-81
2021/03/09 00:16:46;;;;;;;10.57;3.15;;;;;;;-0.34;55.63;101916.25;4983150;28;20120;-81
2021/03/09 00:19:11;;;;;;;5.63;2.65;;;;;;;-0.51;56.39;101915.88;5002268;28;20034;-81
2021/03/09 00:21:37;;;;;;;6.18;2.75;;;;;;;-0.30;55.65;101917.16;4981722;28;20033;-81
2021/03/09 00:24:03;;;;;;;7.38;3.15;;;;;;;-0.50;56.02;101906.44;4983359;28;20088;-81
2021/03/09 00:26:28;;;;;;;8.85;3.00;;;;;;;-0.49;56.08;101909.06;4982793;28;20030;-82
2021/03/09 00:28:54;;;;;;;4.60;2.10;;;;;;;-0.60;56.64;101905.38;4988847;28;20030;-82
2021/03/09 00:31:19;;;;;;;3.50;2.22;;;;;;;-0.62;56.76;101905.34;4988665;28;20187;-82
2021/03/09 00:33:45;;;;;;;8.48;3.22;;;;;;;-0.89;57.31;101903.00;5000082;28;20049;-82
2021/03/09 00:36:11;;;;;;;3.60;2.63;;;;;;;-0.58;56.68;101898.59;4994164;28;20027;-81
2021/03/09 00:38:36;;;;;;;5.25;2.70;;;;;;;-0.49;56.43;101892.78;4989243;28;20061;-82
2021/03/09 00:41:02;;;;;;;5.82;3.05;;;;;;;-0.86;57.06;101891.94;4982400;28;20017;-82
2021/03/09 00:43:27;;;;;;;6.18;2.65;;;;;;;-0.72;57.14;101895.72;4997382;28;20060;-82
2021/03/09 00:45:53;;;;;;;8.15;3.03;;;;;;;-0.67;56.73;101882.97;4997214;28;20038;-83
2021/03/09 00:48:19;;;;;;;5.82;2.83;;;;;;;-0.98;58.06;101883.13;4979839;28;20029;-83
2021/03/09 00:50:44;;;;;;;11.05;3.38;;;;;;;-0.83;57.46;101881.75;4997775;28;20091;-83
2021/03/09 00:53:10;;;;;;;5.03;3.05;;;;;;;-0.68;56.74;101874.41;4982558;28;20058;-83
2021/03/09 00:55:35;;;;;;;8.90;3.53;;;;;;;-0.89;57.76;101876.47;4998068;28;20043;-82
2021/03/09 00:58:01;;;;;;;7.82;3.55;;;;;;;-0.90;58.38;101864.47;4979847;28;20152;-83
2021/03/09 01:00:29;;;;;;;6.43;3.50;;;;;;;-0.67;57.18;101865.88;4980549;28;20080;-83
2021/03/09 01:02:55;;;;;;;6.28;3.45;;;;;;;-1.04;57.79;101852.19;4995255;28;20034;-81
2021/03/09 01:05:23;;;;;;;11.63;3.42;;;;;;;-0.99;57.79;101858.28;4983772;28;20238;-82
2021/03/09 01:07:49;;;;;;;6.32;4.07;;;;;;;-0.85;57.35;101853.47;5001538;28;20034;-82
2021/03/09 01:10:16;;;;;;;7.30;3.95;;;;;;;-0.97;57.92;101848.06;4990367;28;20040;-81
2021/03/09 01:12:42;;;;;;;11.07;3.70;;;;;;;-0.97;57.93;101838.66;5001547;28;20283;-82
2021/03/09 01:15:09;;;;;;;8.20;3.67;;;;;;;-0.94;57.65;101842.16;5002494;28;20053;-82
2021/03/09 01:17:34;;;;;;;11.77;4.50;;;;;;;-1.02;58.11;101839.38;5005022;28;20049;-82
2021/03/09 01:20:00;;;;;;;8.05;3.80;;;;;;;-1.07;58.11;101841.81;4982131;28;20410;-82
2021/03/09 01:22:26;;;;;;;8.07;4.05;;;;;;;-0.75;57.46;101834.00;4986533;28;20034;-81
2021/03/09 01:24:52;;;;;;;10.88;4.13;;;;;;;-0.64;56.91;101827.44;4995613;28;20104;-81
2021/03/09 01:27:18;;;;;;;8.38;3.92;;;;;;;-0.73;57.38;101829.78;4986819;28;20531;-81
2021/03/09 01:29:44;;;;;;;14.15;4.97;;;;;;;-1.01;58.24;101820.59;4990558;28;20060;-84
2021/03/09 01:32:10;;;;;;;8.93;4.22;;;;;;;-0.89;57.68;101820.00;5015195;28;20021;-82
2021/03/09 01:34:36;;;;;;;7.60;4.03;;;;;;;-0.79;57.41;101821.97;5006167;28;20029;-83
2021/03/09 01:37:02;;;;;;;9.77;4.43;;;;;;;-0.77;57.60;101820.31;4999999;28;20037;-83
2021/03/09 01:39:28;;;;;;;7.88;4.25;;;;;;;-0.76;57.17;101812.59;4999114;28;20037;-81
2021/03/09 01:41:53;;;;;;;9.57;4.75;;;;;;;-0.76;57.51;101811.75;4995720;28;20156;-83
2021/03/09 01:44:19;;;;;;;8.95;4.40;;;;;;;-0.74;57.44;101809.22;4983401;28;20037;-81
2021/03/09 01:46:46;;;;;;;9.55;4.45;;;;;;;-0.69;57.19;101803.34;5006529;28;20037;-81
2021/03/09 01:49:14;;;;;;;11.32;4.55;;;;;;;-0.61;56.74;101804.38;4999860;28;20524;-82
2021/03/09 01:51:41;;;;;;;9.95;4.75;;;;;;;-0.73;57.22;101800.69;4992503;28;20037;-82
2021/03/09 01:54:08;;;;;;;8.50;3.80;;;;;;;-0.85;57.44;101791.88;5002309;28;20049;-82
2021/03/09 01:56:34;;;;;;;8.32;4.18;;;;;;;-0.70;56.95;101788.78;4998452;28;20026;-82
2021/03/09 01:59:01;;;;;;;12.57;5.20;;;;;;;-0.95;57.79;101794.19;5004745;28;20426;-82
2021/03/09 02:01:27;;;;;;;10.45;5.43;;;;;;;-0.89;57.65;101779.81;5017380;28;20038;-81
2021/03/09 02:03:52;;;;;;;11.02;5.03;;;;;;;-1.03;57.87;101781.22;4998855;28;20072;-81
2021/03/09 02:06:18;;;;;;;7.05;4.22;;;;;;;-1.15;58.40;101783.44;4995301;28;20535;-81
2021/03/09 02:08:45;;;;;;;9.45;4.18;;;;;;;-0.89;57.46;101771.25;4997342;28;20037;-82
2021/03/09 02:11:33;;;;;;;9.95;5.43;;;;;;;-0.88;57.76;101767.84;5007958;28;20465;-81
2021/03/09 02:14:11;;;;;;;10.95;4.28;;;;;;;-0.91;57.97;101771.19;4983821;28;20418;-81
2021/03/09 02:17:03;;;;;;;11.82;5.28;;;;;;;-0.93;58.13;101761.72;4985801;28;20091;-82
2021/03/09 02:19:53;;;;;;;8.38;5.40;;;;;;;-0.78;57.55;101751.81;5010618;28;20407;-81
2021/03/09 02:22:55;;;;;;;8.10;4.72;;;;;;;-0.90;57.63;101754.13;4999603;28;20057;-82
2021/03/09 02:25:59;;;;;;;9.02;4.55;;;;;;;-0.98;58.12;101754.78;4979773;28;20038;-81
2021/03/09 02:28:27;;;;;;;13.05;4.60;;;;;;;-0.84;57.89;101756.78;4980932;28;20034;-81
2021/03/09 02:30:54;;;;;;;8.30;4.60;;;;;;;-0.72;57.26;101751.94;4979812;28;20044;-82
2021/03/09 02:33:21;;;;;;;8.02;4.93;;;;;;;-0.75;57.08;101741.59;4997761;28;20085;-81
2021/03/09 02:36:02;;;;;;;9.50;3.85;;;;;;;-0.80;57.34;101748.34;5000442;28;20068;-81
2021/03/09 02:38:34;;;;;;;6.20;3.50;;;;;;;-0.73;57.35;101737.34;4995178;28;20029;-80
2021/03/09 02:41:01;;;;;;;7.30;4.15;;;;;;;-0.86;57.57;101738.81;4997215;28;21439;-81
2021/03/09 02:43:28;;;;;;;7.40;4.35;;;;;;;-0.90;57.81;101734.44;4997489;28;20038;-82
2021/03/09 02:45:56;;;;;;;9.52;6.00;;;;;;;-0.70;57.35;101723.75;4998358;28;20040;-81
2021/03/09 02:48:24;;;;;;;8.38;4.75;;;;;;;-0.87;57.37;101733.66;4998842;28;20530;-81
2021/03/09 02:50:54;;;;;;;9.68;4.80;;;;;;;-0.82;57.72;101724.34;4978991;28;20052;-83
2021/03/09 02:53:25;;;;;;;12.77;5.13;;;;;;;-1.01;57.73;101718.81;4997206;28;20576;-81
2021/03/09 02:55:51;;;;;;;9.43;5.00;;;;;;;-0.72;57.28;101705.72;5014494;28;20392;-81
2021/03/09 02:58:19;;;;;;;11.02;5.43;;;;;;;-0.70;57.40;101709.19;4980924;28;20037;-81
2021/03/09 03:00:49;;;;;;;8.23;4.75;;;;;;;-0.67;57.08;101703.25;4996042;28;20033;-81
2021/03/09 03:03:15;;;;;;;10.07;4.85;;;;;;;-0.84;57.82;101695.19;4998150;28;20065;-81
2021/03/09 03:05:42;;;;;;;11.50;6.30;;;;;;;-0.80;57.70;101687.59;4998077;28;20045;-81
2021/03/09 03:08:10;;;;;;;7.28;4.30;;;;;;;-0.66;57.13;101690.44;5014404;28;20036;-82
2021/03/09 03:10:38;;;;;;;9.20;5.03;;;;;;;-0.82;57.55;101690.97;4980620;28;20044;-81
2021/03/09 03:13:07;;;;;;;8.57;4.55;;;;;;;-0.68;57.56;101693.81;4999355;28;20113;-81
2021/03/09 03:15:35;;;;;;;8.77;4.72;;;;;;;-0.71;57.41;101686.91;4996668;28;20096;-82
2021/03/09 03:18:04;;;;;;;10.20;5.43;;;;;;;-0.51;57.22;101689.00;5000781;28;20489;-81
2021/03/09 03:20:30;;;;;;;11.38;5.30;;;;;;;-0.56;56.82;101681.22;4998632;28;20041;-81
2021/03/09 03:22:57;;;;;;;10.95;6.07;;;;;;;-0.43;56.74;101688.31;4996534;28;20072;-81
2021/03/09 03:25:25;;;;;;;13.50;6.30;;;;;;;-0.60;56.91;101684.56;4980688;28;20042;-80
2021/03/09 03:27:52;;;;;;;12.88;6.57;;;;;;;-0.65;57.41;101684.47;4986259;28;20041;-81
2021/03/09 03:30:19;;;;;;;11.25;6.68;;;;;;;-0.50;56.91;101685.59;5033107;28;20084;-81
2021/03/09 03:32:46;;;;;;;9.95;5.40;;;;;;;-0.35;56.71;101680.75;4986331;28;20298;-80
2021/03/09 03:35:14;;;;;;;9.55;5.45;;;;;;;-0.36;56.57;101681.59;5018658;28;20029;-80
2021/03/09 03:37:40;;;;;;;8.73;4.25;;;;;;;-0.35;56.02;101678.16;5001937;28;20033;-79
2021/03/09 03:40:09;;;;;;;8.07;5.82;;;;;;;-0.53;56.68;101677.84;4985406;28;20068;-80
2021/03/09 03:42:35;;;;;;;9.73;5.50;;;;;;;-0.56;56.62;101679.50;5001825;28;20042;-80
2021/03/09 03:45:01;;;;;;;11.20;5.45;;;;;;;-0.70;57.10;101677.53;4982115;28;20028;-79
2021/03/09 03:47:26;;;;;;;10.35;5.75;;;;;;;-0.63;57.04;101680.22;4998528;28;20029;-80
2021/03/09 03:49:53;;;;;;;9.00;4.90;;;;;;;-0.73;57.30;101678.31;4999059;28;20049;-80
2021/03/09 03:52:31;;;;;;;10.55;6.18;;;;;;;-0.39;56.15;101667.00;5000428;28;20091;-80
2021/03/09 03:55:29;;;;;;;12.57;6.47;;;;;;;-0.39;56.21;101681.53;4998658;28;20149;-80
2021/03/09 03:58:00;;;;;;;12.85;6.07;;;;;;;-0.39;55.97;101671.28;4988867;28;20072;-80
2021/03/09 04:00:28;;;;;;;10.45;5.15;;;;;;;-0.47;56.37;101670.25;5010754;28;20065;-80
2021/03/09 04:02:55;;;;;;;11.55;6.05;;;;;;;-0.50;56.76;101668.50;4998137;28;20042;-81
2021/03/09 04:05:22;;;;;;;11.02;5.60;;;;;;;-0.35;55.77;101661.06;4999267;28;20041;-80
2021/03/09 04:07:50;;;;;;;9.88;7.00;;;;;;;-0.28;55.80;101667.19;4980540;28;20096;-79
2021/03/09 04:10:16;;;;;;;11.65;6.05;;;;;;;-0.64;56.53;101668.25;4982315;28;20040;-80
2021/03/09 04:12:43;;;;;;;10.75;6.35;;;;;;;-0.49;56.47;101665.09;4998289;28;20038;-80
2021/03/09 04:15:11;;;;;;;11.30;5.82;;;;;;;-0.53;56.13;101665.00;4981116;28;20068;-80
2021/03/09 04:17:40;;;;;;;15.52;7.13;;;;;;;-0.53;56.44;101652.16;4991135;28;20089;-80
2021/03/09 04:20:08;;;;;;;12.32;6.85;;;;;;;-0.46;56.29;101651.44;4994665;28;20037;-81
2021/03/09 04:22:34;;;;;;;11.50;6.85;;;;;;;-0.63;56.80;101649.41;4997202;28;20535;-79
2021/03/09 04:25:00;;;;;;;12.60;7.20;;;;;;;-0.66;56.97;101639.09;4996348;28;20065;-80
2021/03/09 04:27:27;;;;;;;15.10;7.50;;;;;;;-0.63;56.64;101646.84;4997247;28;20497;-81
2021/03/09 04:29:58;;;;;;;15.75;8.02;;;;;;;-0.49;56.63;101638.53;4982165;28;20038;-80
2021/03/09 04:32:25;;;;;;;14.10;6.97;;;;;;;-0.46;56.46;101647.19;4988016;28;20060;-80
2021/03/09 04:34:52;;;;;;;17.75;7.00;;;;;;;-0.46;56.36;101639.47;5025977;28;20048;-79
2021/03/09 04:37:18;;;;;;;12.65;7.20;;;;;;;-0.76;57.34;101644.88;4986955;28;20497;-81
2021/03/09 04:39:45;;;;;;;11.10;6.72;;;;;;;-0.67;56.90;101637.34;4999384;28;20054;-80
2021/03/09 04:42:11;;;;;;;11.23;6.15;;;;;;;-0.53;56.88;101634.19;4985837;28;20038;-81
2021/03/09 04:44:38;;;;;;;12.65;5.18;;;;;;;-0.42;56.61;101637.81;4985990;28;20029;-80
2021/03/09 04:47:05;;;;;;;17.05;6.60;;;;;;;-0.49;56.64;101641.97;5000903;28;20087;-80
2021/03/09 04:49:33;;;;;;;13.30;6.82;;;;;;;-0.45;56.65;101637.75;4998516;28;20053;-80
2021/03/09 04:51:59;;;;;;;15.38;8.18;;;;;;;-0.64;56.95;101642.56;4983028;28;20088;-81
2021/03/09 04:54:25;;;;;;;12.35;7.32;;;;;;;-0.62;57.10;101642.56;4985977;28;20412;-82
2021/03/09 04:56:51;;;;;;;10.35;6.18;;;;;;;-0.47;56.79;101640.28;4983955;28;20038;-81
2021/03/09 04:59:17;;;;;;;12.18;6.38;;;;;;;-0.50;56.64;101639.34;5002116;28;20056;-83
2021/03/09 05:01:43;;;;;;;11.88;6.18;;;;;;;-0.42;56.52;101642.94;5001759;28;20030;-81
2021/03/09 05:04:09;;;;;;;13.38;7.22;;;;;;;-0.39;56.31;101643.88;5003385;28;20509;-81
2021/03/09 05:06:35;;;;;;;12.32;7.15;;;;;;;-0.32;56.24;101639.72;4986470;28;20447;-82
2021/03/09 05:09:00;;;;;;;13.85;7.18;;;;;;;-0.18;56.03;101648.50;4989293;28;20034;-81
2021/03/09 05:11:28;;;;;;;14.68;7.43;;;;;;;-0.20;56.10;101645.03;5019666;28;20286;-80
2021/03/09 05:13:55;;;;;;;12.57;6.70;;;;;;;-0.23;56.07;101641.56;5002801;28;20102;-81
2021/03/09 05:16:21;;;;;;;12.88;7.00;;;;;;;-0.17;55.70;101634.84;5001982;28;20044;-79
2021/03/09 05:18:46;;;;;;;14.20;7.45;;;;;;;-0.21;56.14;101632.19;5003312;28;20091;-81
2021/03/09 05:21:12;;;;;;;11.55;6.85;;;;;;;-0.27;56.41;101632.94;4990190;28;20029;-80
2021/03/09 05:23:37;;;;;;;15.20;7.25;;;;;;;-0.18;55.90;101632.22;4986083;28;20509;-80
2021/03/09 05:26:03;;;;;;;11.80;6.55;;;;;;;-0.25;56.15;101627.84;5000895;28;20030;-79
2021/03/09 05:28:28;;;;;;;15.45;6.82;;;;;;;-0.40;56.49;101631.00;4984712;28;20137;-80
2021/03/09 05:30:54;;;;;;;11.98;7.38;;;;;;;-0.04;55.57;101640.16;4999983;28;20037;-81
2021/03/09 05:33:19;;;;;;;13.45;6.50;;;;;;;-0.14;55.67;101637.44;5001346;28;20038;-80
2021/03/09 05:35:45;;;;;;;14.45;6.45;;;;;;;-0.14;55.72;101624.59;5001281;28;20097;-80
2021/03/09 05:38:11;;;;;;;12.20;7.13;;;;;;;-0.16;56.14;101631.41;5003874;28;20045;-79
2021/03/09 05:40:36;;;;;;;10.40;6.95;;;;;;;-0.10;55.61;101629.78;4999684;28;20030;-81
2021/03/09 05:43:02;;;;;;;14.07;8.32;;;;;;;-0.32;56.21;101633.72;5001460;28;20616;-80
2021/03/09 05:45:29;;;;;;;12.82;7.68;;;;;;;-0.22;55.94;101636.44;4985466;28;20034;-80
2021/03/09 05:47:54;;;;;;;9.25;6.63;;;;;;;-0.27;56.08;101638.06;5003554;28;20034;-81
2021/03/09 05:50:20;;;;;;;12.93;7.28;;;;;;;-0.14;56.09;101640.00;4987521;28;20065;-81
2021/03/09 05:52:46;;;;;;;12.45;6.55;;;;;;;-0.03;55.76;101641.91;4986964;28;20037;-80
2021/03/09 05:55:13;;;;;;;10.55;6.63;;;;;;;-0.09;55.57;101644.38;4980776;28;20022;-80
2021/03/09 05:57:39;;;;;;;11.13;6.32;;;;;;;0.03;55.51;101636.84;5001848;28;20580;-81
2021/03/09 06:00:10;;;;;;;17.02;8.23;;;;;;;-0.03;55.51;101637.63;4986101;28;20076;-81
2021/03/09 06:02:39;;;;;;;11.25;6.65;;;;;;;-0.36;56.55;101630.22;5003229;28;20315;-81
2021/03/09 06:05:07;;;;;;;14.98;7.90;;;;;;;-0.20;56.07;101642.47;4986695;28;20156;-80
2021/03/09 06:07:35;;;;;;;12.35;8.20;;;;;;;-0.20;56.36;101634.75;5004944;28;20041;-80
2021/03/09 06:10:01;;;;;;;15.88;7.60;;;;;;;-0.29;56.21;101647.47;4985730;28;20217;-80
2021/03/09 06:12:27;;;;;;;12.65;6.97;;;;;;;-0.06;55.83;101636.69;4986488;28;20041;-80
2021/03/09 06:14:55;;;;;;;14.57;7.72;;;;;;;-0.03;55.52;101642.78;5002040;28;20029;-81
2021/03/09 06:17:42;;;;;;;14.52;8.25;;;;;;;0.08;55.14;101640.38;4982956;28;20030;-79
2021/03/09 06:20:28;;;;;;;13.57;7.07;;;;;;;0.03;55.70;101642.88;4983960;28;20057;-81
2021/03/09 06:22:59;;;;;;;12.98;7.80;;;;;;;0.10;55.32;101646.41;4984737;28;20034;-80
2021/03/09 06:25:27;;;;;;;15.38;7.65;;;;;;;0.03;55.53;101640.31;5017498;28;20022;-81
2021/03/09 06:27:53;;;;;;;16.00;8.95;;;;;;;0.17;55.24;101635.38;5016017;28;20053;-82
2021/03/09 06:30:32;;;;;;;17.15;8.38;;;;;;;0.26;55.04;101640.66;5014699;28;20413;-83
2021/03/09 06:32:58;;;;;;;16.08;7.72;;;;;;;0.21;54.66;101642.28;5000417;28;20034;-79
2021/03/09 06:35:42;;;;;;;13.05;7.80;;;;;;;0.21;55.14;101642.28;4984193;28;20034;-80
2021/03/09 06:38:33;;;;;;;13.98;7.38;;;;;;;-0.03;55.76;101647.91;4999768;28;20303;-80
2021/03/09 06:41:10;;;;;;;14.85;7.85;;;;;;;0.12;55.53;101647.28;4995020;28;20037;-81
2021/03/09 06:43:37;;;;;;;11.45;7.00;;;;;;;0.19;55.70;101643.97;5014675;28;20143;-80
2021/03/09 06:46:09;;;;;;;12.43;8.00;;;;;;;0.24;55.29;101637.19;4981375;28;20042;-80
2021/03/09 06:48:38;;;;;;;15.70;7.97;;;;;;;0.30;55.15;101638.13;5001797;28;20092;-81
2021/03/09 06:51:04;;;;;;;15.05;7.40;;;;;;;0.26;55.00;101640.66;5000975;28;20034;-80
2021/03/09 06:53:29;;;;;;;14.60;7.65;;;;;;;0.33;55.12;101644.19;4995510;28;20116;-80
2021/03/09 06:55:55;;;;;;;18.52;9.38;;;;;;;0.25;55.08;101643.19;4999471;28;20030;-80
2021/03/09 06:58:30;;;;;;;15.73;8.35;;;;;;;0.29;54.84;101650.13;5001413;28;20022;-80
2021/03/09 07:01:15;;;;;;;13.30;7.63;;;;;;;-0.07;55.96;101651.25;4983549;28;20045;-81
2021/03/09 07:03:41;;;;;;;19.65;8.43;;;;;;;0.24;55.31;101642.34;4982247;28;20042;-80
2021/03/09 07:06:06;;;;;;;15.38;8.35;;;;;;;0.35;54.80;101651.94;4983430;28;20417;-79
2021/03/09 07:08:32;;;;;;;11.65;7.28;;;;;;;0.41;54.90;101670.88;5001554;28;20034;-80
2021/03/09 07:10:58;;;;;;;14.18;7.53;;;;;;;0.32;55.13;101659.56;4999872;28;20311;-82
2021/03/09 07:13:26;;;;;;;12.93;7.95;;;;;;;0.18;55.34;101657.66;4999212;28;20030;-81
2021/03/09 07:15:52;;;;;;;14.32;8.65;;;;;;;0.34;54.92;101652.75;4988067;28;20057;-82
2021/03/09 07:18:26;;;;;;;14.82;8.30;;;;;;;0.40;54.83;101661.44;4988121;28;20033;-80
2021/03/09 07:20:54;;;;;;;15.20;8.18;;;;;;;0.15;55.56;101662.75;4999141;28;20038;-80
2021/03/09 07:23:21;;;;;;;15.80;7.60;;;;;;;0.28;55.22;101659.53;5003278;28;20097;-80
2021/03/09 07:25:55;;;;;;;15.40;7.65;;;;;;;0.36;54.66;101664.78;4998938;28;20378;-80
2021/03/09 07:28:23;;;;;;;13.48;8.25;;;;;;;0.38;54.97;101667.41;5015886;28;20033;-80
2021/03/09 07:30:53;;;;;;;12.98;8.15;;;;;;;0.56;54.36;101670.22;5004365;28;20249;-80
2021/03/09 07:33:21;;;;;;;15.57;8.63;;;;;;;0.54;54.51;101669.34;4996020;28;20030;-80
2021/03/09 07:35:47;;;;;;;17.52;8.93;;;;;;;0.53;54.81;101669.34;5005021;28;20497;-80
2021/03/09 07:38:19;;;;;;;13.05;8.52;;;;;;;0.64;54.24;101671.22;4986428;28;20033;-80
2021/03/09 07:40:45;;;;;;;13.38;8.98;;;;;;;0.50;54.29;101670.13;4995251;28;20069;-79
2021/03/09 07:43:11;;;;;;;16.58;9.07;;;;;;;0.55;54.47;101663.38;5015897;28;20034;-81
2021/03/09 07:45:37;;;;;;;16.90;9.02;;;;;;;0.63;54.21;101664.31;5006086;28;20034;-82
2021/03/09 07:48:16;;;;;;;16.23;9.10;;;;;;;0.59;54.48;101662.56;4986781;28;20034;-80
2021/03/09 07:50:44;;;;;;;12.50;7.78;;;;;;;0.60;54.39;101666.00;5011555;28;20022;-80
2021/03/09 07:53:20;;;;;;;16.25;8.40;;;;;;;0.61;54.06;101666.03;4981743;28;20444;-81
2021/03/09 07:56:07;;;;;;;14.50;8.15;;;;;;;0.63;54.30;101672.03;4979218;28;20037;-85
2021/03/09 07:58:33;;;;;;;14.70;8.07;;;;;;;0.75;54.34;101673.03;4970390;28;20076;-80
2021/03/09 08:01:00;;;;;;;14.38;8.23;;;;;;;0.69;54.16;101681.56;4998034;28;20058;-79
2021/03/09 08:03:36;;;;;;;18.02;8.85;;;;;;;0.62;54.46;101674.59;4993524;28;20077;-81
2021/03/09 08:06:04;;;;;;;14.88;9.48;;;;;;;0.58;54.27;101683.97;5011436;28;20456;-80
2021/03/09 08:08:46;;;;;;;19.10;9.43;;;;;;;0.61;54.71;101684.03;4993136;28;20038;-80
2021/03/09 08:11:26;;;;;;;18.38;9.90;;;;;;;0.65;54.52;101672.94;4994367;28;20087;-80
2021/03/09 08:14:04;;;;;;;17.38;9.77;;;;;;;0.64;54.52;101678.06;4994973;28;20066;-79
2021/03/09 08:16:42;;;;;;;18.13;8.93;;;;;;;0.57;54.66;101679.69;5014065;28;20026;-81
2021/03/09 08:19:26;;;;;;;19.13;9.80;;;;;;;0.61;54.73;101683.16;4982178;28;20030;-80
2021/03/09 08:22:00;;;;;;;19.92;10.35;;;;;;;0.58;54.84;101683.97;5003064;28;20064;-80
2021/03/09 08:24:41;;;;;;;21.30;10.07;;;;;;;0.56;54.51;101680.50;4983963;28;20054;-81
2021/03/09 08:27:31;;;;;;;17.33;9.25;;;;;;;0.68;54.21;101685.84;4985103;28;20033;-81
2021/03/09 08:30:29;;;;;;;20.40;9.57;;;;;;;0.68;53.83;101685.00;4987739;28;20060;-81
2021/03/09 08:33:27;;;;;;;18.20;9.38;;;;;;;0.71;54.51;101687.59;5000181;28;20042;-81
2021/03/09 08:35:53;;;;;;;20.80;8.95;;;;;;;0.74;54.82;101690.19;4998872;28;20033;-81
2021/03/09 08:38:20;;;;;;;18.95;10.20;;;;;;;1.00;54.19;101681.97;5000708;28;20033;-81
2021/03/09 08:41:04;;;;;;;17.73;11.45;;;;;;;1.02;53.98;101681.16;4984920;28;20022;-81
2021/03/09 08:43:30;;;;;;;19.20;9.85;;;;;;;1.07;53.98;101679.50;4999618;28;20037;-84
2021/03/09 08:45:58;;;;;;;18.75;10.52;;;;;;;0.94;53.97;101693.06;5003300;28;20041;-81
2021/03/09 08:48:44;;;;;;;23.77;12.07;;;;;;;0.86;54.23;101684.38;4984912;28;20034;-83
2021/03/09 08:51:39;;;;;;;20.90;10.32;;;;;;;1.08;53.96;101681.25;5013682;28;20408;-81
2021/03/09 08:54:16;;;;;;;18.90;9.88;;;;;;;1.17;53.63;101679.59;5000550;28;20030;-85
2021/03/09 08:56:42;;;;;;;20.13;10.35;;;;;;;1.22;53.84;101675.38;4998198;28;20145;-82
2021/03/09 08:59:07;;;;;;;22.98;10.88;;;;;;;1.23;53.75;101674.53;4983902;28;20034;-82
2021/03/09 09:01:33;;;;;;;23.13;11.15;;;;;;;1.35;53.39;101685.00;5002861;28;20045;-82
2021/03/09 09:03:59;;;;;;;21.20;9.82;;;;;;;1.25;53.75;101680.56;4982401;28;20065;-80
2021/03/09 09:06:28;;;;;;;20.45;11.32;;;;;;;1.10;53.51;101678.66;5018645;28;20034;-81
2021/03/09 09:08:53;;;;;;;18.30;9.88;;;;;;;1.18;53.88;101686.50;4986249;28;20061;-84
2021/03/09 09:11:26;;;;;;;22.45;11.23;;;;;;;1.15;53.73;101692.47;4989626;28;20034;-82
2021/03/09 09:13:52;;;;;;;21.02;10.57;;;;;;;1.10;54.10;101676.97;4992572;28;20033;-84
2021/03/09 09:16:18;;;;;;;21.30;9.65;;;;;;;1.19;54.02;101677.91;4991922;28;20041;-84
2021/03/09 09:18:44;;;;;;;18.05;9.02;;;;;;;1.21;53.77;101681.38;5012983;28;20059;-87
2021/03/09 09:21:13;;;;;;;19.30;9.13;;;;;;;1.19;53.71;101688.22;5013756;28;20041;-85
2021/03/09 09:23:52;;;;;;;21.90;9.68;;;;;;;1.30;53.71;101682.38;4997621;28;20052;-88
2021/03/09 09:26:21;;;;;;;18.38;9.10;;;;;;;1.49;53.51;101683.44;5024311;28;20065;-83
2021/03/09 09:29:07;;;;;;;;;;;;;;;1.49;53.38;101682.59;5011402;28;20075;-86
2021/03/09 09:32:02;;;;;;;20.48;9.43;;;;;;;1.53;53.59;101681.78;5026815;28;20346;-83
2021/03/09 09:35:15;;;;;;;18.35;8.77;;;;;;;1.67;53.28;101687.06;4991127;28;20057;-85
2021/03/09 09:37:55;;;;;;;25.83;8.95;;;;;;;1.67;53.23;101685.34;4986965;28;20038;-83
2021/03/09 09:40:35;;;;;;;17.92;8.70;;;;;;;1.42;53.63;101684.22;5008055;28;20054;-83
2021/03/09 10:25:11;;;;;;;19.60;9.52;;;;;;;2.15;52.47;101711.56;5020589;28;20048;-86
2021/03/09 10:27:59;;;;;;;23.08;10.32;;;;;;;2.24;52.72;101708.19;5015827;28;20101;-87
2021/03/09 10:30:41;;;;;;;17.05;9.27;;;;;;;2.22;52.61;101710.78;4985446;28;20033;-86
2021/03/09 10:33:11;;;;;;;24.63;9.73;;;;;;;2.27;52.47;101709.09;5005695;28;20116;-86
2021/03/09 10:36:12;;;;;;;23.67;9.93;;;;;;;2.24;52.79;101709.09;5007744;28;20048;-86
2021/03/09 10:38:43;;;;;;;23.73;10.43;;;;;;;2.39;52.47;101712.63;5001099;28;20037;-86
2021/03/09 10:41:29;;;;;;;22.95;11.32;;;;;;;2.61;52.70;101711.91;5012162;28;20045;-86
2021/03/09 10:43:55;;;;;;;26.13;10.57;;;;;;;2.60;51.94;101709.31;4984695;28;20056;-84
2021/03/09 10:46:37;;;;;;;21.20;11.05;;;;;;;2.81;51.94;101708.59;4997979;28;20337;-86
2021/03/09 10:49:05;;;;;;;21.13;9.77;;;;;;;2.91;51.20;101708.66;4980272;28;20042;-83
2021/03/09 11:38:21;;;;;;;21.77;10.20;;;;;;;2.87;51.64;101719.84;5011136;28;20048;-85
2021/03/09 11:41:15;;;;;;;27.58;10.93;;;;;;;2.91;51.47;101720.69;4970942;28;20088;-87
2021/03/09 13:52:08;;;;;;;39.33;15.43;;;;;;;3.10;51.18;101732.84;5011203;28;20040;-83
2021/03/09 13:54:34;;;;;;;38.30;16.08;;;;;;;3.18;51.34;101726.00;4996649;28;20045;-85
2021/03/09 14:00:30;;;;;;;47.30;17.23;;;;;;;3.29;50.02;101720.03;4950691;28;20105;-84
2021/03/09 14:02:56;;;;;;;53.13;18.77;;;;;;;3.40;49.78;101720.94;4967985;28;20054;-85
2021/03/09 14:05:23;;;;;;;48.53;18.25;;;;;;;3.27;49.84;101724.31;4993401;28;20040;-85
2021/03/09 14:07:49;;;;;;;52.05;18.80;;;;;;;3.09;49.70;101719.91;4994698;28;20085;-84
2021/03/09 14:10:15;;;;;;;59.42;20.30;;;;;;;3.01;50.47;101719.91;4994593;28;20041;-85
2021/03/09 14:12:40;;;;;;;53.75;20.67;;;;;;;3.12;50.59;101720.81;4976228;28;20101;-85
2021/03/09 14:15:08;;;;;;;49.33;18.30;;;;;;;3.14;50.43;101719.09;4977001;28;20038;-85
2021/03/09 14:17:34;;;;;;;54.97;20.38;;;;;;;3.15;49.44;101713.06;4976743;28;20473;-85
2021/03/09 14:20:01;;;;;;;51.38;19.42;;;;;;;3.15;50.10;101715.66;4999713;28;20064;-85
2021/03/09 14:22:28;;;;;;;47.17;17.17;;;;;;;3.23;49.99;101715.69;4994947;28;20037;-85
2021/03/09 14:24:53;;;;;;;40.47;18.20;;;;;;;3.24;50.17;101719.13;4977813;28;20061;-85
2021/03/09 14:27:20;;;;;;;41.95;16.58;;;;;;;3.28;49.45;101716.56;4992290;28;20072;-85
2021/03/09 14:29:46;;;;;;;44.88;16.88;;;;;;;3.32;49.71;101713.19;4980658;28;20030;-84
2021/03/09 14:32:13;;;;;;;39.55;15.38;;;;;;;3.37;49.40;101715.78;4977464;28;20033;-83
2021/03/09 14:34:39;;;;;;;36.50;14.88;;;;;;;3.49;49.09;101713.25;4981758;28;20025;-84
2021/03/09 14:37:04;;;;;;;43.60;17.00;;;;;;;3.35;48.86;101725.25;4979129;28;20441;-83
2021/03/09 14:39:30;;;;;;;40.78;16.65;;;;;;;3.37;49.90;101721.81;4994925;28;20026;-84
2021/03/09 14:41:56;;;;;;;47.53;17.38;;;;;;;3.43;49.66;101723.56;5006697;28;20461;-85
2021/03/09 14:44:31;;;;;;;39.10;16.23;;;;;;;3.34;49.49;101723.53;4978231;28;20088;-85
2021/03/09 14:46:57;;;;;;;32.22;15.45;;;;;;;3.36;48.91;101724.41;5009844;28;20048;-84
2021/03/09 14:49:22;;;;;;;39.13;15.30;;;;;;;3.45;48.98;101719.25;4993160;28;20037;-83
2021/03/09 14:51:48;;;;;;;36.63;14.80;;;;;;;3.36;48.94;101716.66;4989488;28;20393;-85
2021/03/09 14:54:17;;;;;;;41.20;16.38;;;;;;;3.39;49.33;101721.81;4997085;28;20208;-85
2021/03/09 14:56:43;;;;;;;35.00;15.93;;;;;;;3.48;48.72;101716.69;4994656;28;20049;-84
2021/03/09 14:59:09;;;;;;;31.98;13.77;;;;;;;3.34;49.15;101710.63;5005816;28;20043;-84
2021/03/09 15:01:35;;;;;;;33.47;15.50;;;;;;;3.31;49.36;101718.34;4990962;28;20107;-86
2021/03/09 15:04:01;;;;;;;33.45;14.07;;;;;;;3.39;49.34;101724.41;4976457;28;20065;-86
2021/03/09 15:06:27;;;;;;;29.73;14.50;;;;;;;3.38;49.29;101727.81;4976517;28;20041;-84
2021/03/09 15:08:53;;;;;;;37.33;13.13;;;;;;;3.34;49.39;101732.13;4991396;28;20163;-85
2021/03/09 15:11:20;;;;;;;33.17;14.57;;;;;;;3.33;49.40;101730.41;5005018;28;20298;-85
2021/03/09 15:13:46;;;;;;;36.28;14.98;;;;;;;3.41;49.50;101729.59;4992762;28;20041;-85
2021/03/09 15:16:12;;;;;;;30.35;13.88;;;;;;;3.49;49.49;101731.34;4993686;28;20397;-86